Lord Of The Glens — ZQOE9 — position and weather

sailwx.info

Track history (hours):
 
Tides and Currents Weather Stations Pressure Air Temp Water Temp Dewpoint Dewpoint Depression Visibility Wind Speed Wind Dir Waves Ship Positions

Lord Of The Glens

Operator: V Ships UK Ltd

Last reported at 2018-May-25 11:49 UTC. Time now 2018-May-26 12:09 UTC.
Position N 56°37' W 005°23'.

Length 45 m; draft 2.8 m.

Type: Passenger vessel. MMSI: 235000295.

Date/timePositionNaut miles runAvg speedWind from/ knotsBaromVisibWave heightAir tempDewpointWater temp
2018-May-25 11:49N 56°37' W 005°23'3 9.7
2018-May-25 11:30N 56°34' W 005°25'510.5
2018-May-25 11:00N 56°29' W 005°29'4 0.2
2018-May-24 16:20N 56°25' W 005°29'3 8.7
2018-May-24 16:00N 56°26' W 005°33'5 0.6
2018-May-24 06:28N 56°29' W 005°42'40 1.0
2018-May-22 12:26N 57°09' W 005°45'6 9.1
2018-May-22 11:45N 57°15' W 005°39'2 7.1
2018-May-22 11:30N 57°16' W 005°40'2 2.7
2018-May-22 10:54N 57°17' W 005°43'0 0.0
2018-May-22 10:30N 57°17' W 005°43'0 0.0
2018-May-22 10:00N 57°17' W 005°43'0 0.0
2018-May-22 09:30N 57°17' W 005°43'0 0.0
2018-May-22 09:00N 57°17' W 005°43'0 0.0
2018-May-22 08:30N 57°17' W 005°43'0 0.0
2018-May-22 07:57N 57°17' W 005°43'0 0.0
2018-May-22 07:27N 57°17' W 005°43'0 0.0
2018-May-22 06:57N 57°17' W 005°43'0 0.0
2018-May-22 06:30N 57°17' W 005°43'0 0.0
2018-May-22 05:54N 57°17' W 005°43'0 0.0
2018-May-22 05:21N 57°17' W 005°43'0 0.0
2018-May-22 05:00N 57°17' W 005°43'0 0.0
2018-May-22 04:27N 57°17' W 005°43'0 0.0
2018-May-22 03:54N 57°17' W 005°43'0 0.0
2018-May-22 03:30N 57°17' W 005°43'0 0.0
2018-May-22 02:57N 57°17' W 005°43'0 0.0
2018-May-22 02:30N 57°17' W 005°43'0 0.0
2018-May-22 02:00N 57°17' W 005°43'0 0.0
2018-May-22 01:30N 57°17' W 005°43'0 0.0
2018-May-22 01:00N 57°17' W 005°43'0 0.0
2018-May-22 00:30N 57°17' W 005°43'0 0.0
2018-May-22 00:00N 57°17' W 005°43'0 0.0
2018-May-21 23:21N 57°17' W 005°43'0 0.0
2018-May-21 22:57N 57°17' W 005°43'0 0.0
2018-May-21 22:27N 57°17' W 005°43'0 0.0
2018-May-21 22:00N 57°17' W 005°43'0 0.0
2018-May-21 21:27N 57°17' W 005°43'0 0.0
2018-May-21 21:00N 57°17' W 005°43'0 0.0
2018-May-21 20:30N 57°17' W 005°43'0 0.0
2018-May-21 19:54N 57°17' W 005°43'0 0.0
2018-May-21 19:30N 57°17' W 005°43'0 0.0
2018-May-21 19:00N 57°17' W 005°43'0 0.0
2018-May-21 18:30N 57°17' W 005°43'0 0.0
2018-May-21 17:57N 57°17' W 005°43'0 0.0
2018-May-21 17:30N 57°17' W 005°43'0 0.0
2018-May-21 17:00N 57°17' W 005°43'0 0.0
2018-May-21 16:27N 57°17' W 005°43'0 0.0
2018-May-21 16:00N 57°17' W 005°43'0 0.0
2018-May-21 15:30N 57°17' W 005°43'0 0.0
2018-May-21 15:00N 57°17' W 005°43'0 0.0
2018-May-21 14:30N 57°17' W 005°43'0 0.0
2018-May-21 14:00N 57°17' W 005°43'0 0.0
2018-May-21 13:30N 57°17' W 005°43'0 0.0
2018-May-21 13:00N 57°17' W 005°43'0 0.0
2018-May-21 12:30N 57°17' W 005°43'0 0.0
2018-May-21 12:00N 57°17' W 005°43'0 0.0
2018-May-21 11:30N 57°17' W 005°43'0 0.0
2018-May-21 11:00N 57°17' W 005°43'0 0.0
2018-May-21 10:30N 57°17' W 005°43'0 0.0
2018-May-21 10:00N 57°17' W 005°43'0 0.0
2018-May-21 09:30N 57°17' W 005°43'0 0.0
2018-May-21 09:00N 57°17' W 005°43'0 0.0
2018-May-21 08:30N 57°17' W 005°43'0 0.0
2018-May-21 08:00N 57°17' W 005°43'0 0.0
2018-May-21 07:30N 57°17' W 005°43'0 0.0
2018-May-21 07:00N 57°17' W 005°43'0 0.0
2018-May-21 06:29N 57°17' W 005°43'0 0.0
2018-May-21 06:00N 57°17' W 005°43'0 0.0
2018-May-21 05:29N 57°17' W 005°43'0 0.0
2018-May-21 04:57N 57°17' W 005°43'0 0.0
2018-May-21 04:27N 57°17' W 005°43'0 0.0
2018-May-21 03:58N 57°17' W 005°43'0 0.0
2018-May-21 03:29N 57°17' W 005°43'0 0.0
2018-May-21 03:00N 57°17' W 005°43'0 0.0
2018-May-21 02:27N 57°17' W 005°43'0 0.0
2018-May-21 01:58N 57°17' W 005°43'0 0.0
2018-May-21 01:29N 57°17' W 005°43'0 0.0
2018-May-21 00:58N 57°17' W 005°43'0 0.0
2018-May-21 00:29N 57°17' W 005°43'0 0.0
2018-May-21 00:00N 57°17' W 005°43'0 0.0
2018-May-20 23:29N 57°17' W 005°43'0 0.0
2018-May-20 22:59N 57°17' W 005°43'0 0.0
2018-May-20 22:30N 57°17' W 005°43'0 0.0
2018-May-20 22:00N 57°17' W 005°43'0 0.0
2018-May-20 21:27N 57°17' W 005°43'0 0.0
2018-May-20 20:58N 57°17' W 005°43'0 0.0
2018-May-20 20:29N 57°17' W 005°43'0 0.0
2018-May-20 19:58N 57°17' W 005°43'0 0.0
2018-May-20 19:19N 57°17' W 005°43'0 0.0
2018-May-20 19:00N 57°17' W 005°43'0 0.0
2018-May-20 18:28N 57°17' W 005°43'0 0.0
2018-May-20 17:59N 57°17' W 005°43'0 0.0
2018-May-20 17:28N 57°17' W 005°43'0 0.0
2018-May-20 17:00N 57°17' W 005°43'0 0.0
2018-May-20 16:28N 57°17' W 005°43'0 0.0
2018-May-20 15:58N 57°17' W 005°43'0 0.0
2018-May-20 15:29N 57°17' W 005°43'0 0.0
2018-May-20 14:59N 57°17' W 005°43'0 0.0
2018-May-20 14:29N 57°17' W 005°43'0 0.0
2018-May-20 14:00N 57°17' W 005°43'0 0.0
2018-May-20 13:28N 57°17' W 005°43'0 0.5
2018-May-20 12:59N 57°17' W 005°42'3 6.1
2018-May-20 12:30N 57°14' W 005°40'6 8.6
2018-May-20 11:51N 57°09' W 005°45'  
2018-May-18 06:23N 56°28' W 005°39'410.5
2018-May-18 06:01N 56°26' W 005°32'2 0.1
2018-May-17 10:41N 56°25' W 005°29'1 8.3
2018-May-17 10:30N 56°26' W 005°30'5 9.6
2018-May-17 10:01N 56°31' W 005°27'510.9
2018-May-17 09:30N 56°36' W 005°24'  
Track history (hours):
 
Tides and Currents Weather Stations Pressure Air Temp Water Temp Dewpoint Dewpoint Depression Visibility Wind Speed Wind Dir Waves Ship Positions

Lord Of The Glens

Operator: V Ships UK Ltd

Last reported at 2018-May-25 11:49 UTC. Time now 2018-May-26 12:09 UTC.
Position N 56°37' W 005°23'.

Length 45 m; draft 2.8 m.

Type: Passenger vessel. MMSI: 235000295.

Date/timePositionNaut miles runAvg speedWind from/ knotsBaromVisibWave heightAir tempDewpointWater temp
2018-May-25 11:49N 56°37' W 005°23'3 9.7
2018-May-25 11:30N 56°34' W 005°25'510.5
2018-May-25 11:00N 56°29' W 005°29'4 0.2
2018-May-24 16:20N 56°25' W 005°29'3 8.7
2018-May-24 16:00N 56°26' W 005°33'5 0.6
2018-May-24 06:28N 56°29' W 005°42'40 1.0
2018-May-22 12:26N 57°09' W 005°45'6 9.1
2018-May-22 11:45N 57°15' W 005°39'2 7.1
2018-May-22 11:30N 57°16' W 005°40'2 2.7
2018-May-22 10:54N 57°17' W 005°43'0 0.0
2018-May-22 10:30N 57°17' W 005°43'0 0.0
2018-May-22 10:00N 57°17' W 005°43'0 0.0
2018-May-22 09:30N 57°17' W 005°43'0 0.0
2018-May-22 09:00N 57°17' W 005°43'0 0.0
2018-May-22 08:30N 57°17' W 005°43'0 0.0
2018-May-22 07:57N 57°17' W 005°43'0 0.0
2018-May-22 07:27N 57°17' W 005°43'0 0.0
2018-May-22 06:57N 57°17' W 005°43'0 0.0
2018-May-22 06:30N 57°17' W 005°43'0 0.0
2018-May-22 05:54N 57°17' W 005°43'0 0.0
2018-May-22 05:21N 57°17' W 005°43'0 0.0
2018-May-22 05:00N 57°17' W 005°43'0 0.0
2018-May-22 04:27N 57°17' W 005°43'0 0.0
2018-May-22 03:54N 57°17' W 005°43'0 0.0
2018-May-22 03:30N 57°17' W 005°43'0 0.0
2018-May-22 02:57N 57°17' W 005°43'0 0.0
2018-May-22 02:30N 57°17' W 005°43'0 0.0
2018-May-22 02:00N 57°17' W 005°43'0 0.0
2018-May-22 01:30N 57°17' W 005°43'0 0.0
2018-May-22 01:00N 57°17' W 005°43'0 0.0
2018-May-22 00:30N 57°17' W 005°43'0 0.0
2018-May-22 00:00N 57°17' W 005°43'0 0.0
2018-May-21 23:21N 57°17' W 005°43'0 0.0
2018-May-21 22:57N 57°17' W 005°43'0 0.0
2018-May-21 22:27N 57°17' W 005°43'0 0.0
2018-May-21 22:00N 57°17' W 005°43'0 0.0
2018-May-21 21:27N 57°17' W 005°43'0 0.0
2018-May-21 21:00N 57°17' W 005°43'0 0.0
2018-May-21 20:30N 57°17' W 005°43'0 0.0
2018-May-21 19:54N 57°17' W 005°43'0 0.0
2018-May-21 19:30N 57°17' W 005°43'0 0.0
2018-May-21 19:00N 57°17' W 005°43'0 0.0
2018-May-21 18:30N 57°17' W 005°43'0 0.0
2018-May-21 17:57N 57°17' W 005°43'0 0.0
2018-May-21 17:30N 57°17' W 005°43'0 0.0
2018-May-21 17:00N 57°17' W 005°43'0 0.0
2018-May-21 16:27N 57°17' W 005°43'0 0.0
2018-May-21 16:00N 57°17' W 005°43'0 0.0
2018-May-21 15:30N 57°17' W 005°43'0 0.0
2018-May-21 15:00N 57°17' W 005°43'0 0.0
2018-May-21 14:30N 57°17' W 005°43'0 0.0
2018-May-21 14:00N 57°17' W 005°43'0 0.0
2018-May-21 13:30N 57°17' W 005°43'0 0.0
2018-May-21 13:00N 57°17' W 005°43'0 0.0
2018-May-21 12:30N 57°17' W 005°43'0 0.0
2018-May-21 12:00N 57°17' W 005°43'0 0.0
2018-May-21 11:30N 57°17' W 005°43'0 0.0
2018-May-21 11:00N 57°17' W 005°43'0 0.0
2018-May-21 10:30N 57°17' W 005°43'0 0.0
2018-May-21 10:00N 57°17' W 005°43'0 0.0
2018-May-21 09:30N 57°17' W 005°43'0 0.0
2018-May-21 09:00N 57°17' W 005°43'0 0.0
2018-May-21 08:30N 57°17' W 005°43'0 0.0
2018-May-21 08:00N 57°17' W 005°43'0 0.0
2018-May-21 07:30N 57°17' W 005°43'0 0.0
2018-May-21 07:00N 57°17' W 005°43'0 0.0
2018-May-21 06:29N 57°17' W 005°43'0 0.0
2018-May-21 06:00N 57°17' W 005°43'0 0.0
2018-May-21 05:29N 57°17' W 005°43'0 0.0
2018-May-21 04:57N 57°17' W 005°43'0 0.0
2018-May-21 04:27N 57°17' W 005°43'0 0.0
2018-May-21 03:58N 57°17' W 005°43'0 0.0
2018-May-21 03:29N 57°17' W 005°43'0 0.0
2018-May-21 03:00N 57°17' W 005°43'0 0.0
2018-May-21 02:27N 57°17' W 005°43'0 0.0
2018-May-21 01:58N 57°17' W 005°43'0 0.0
2018-May-21 01:29N 57°17' W 005°43'0 0.0
2018-May-21 00:58N 57°17' W 005°43'0 0.0
2018-May-21 00:29N 57°17' W 005°43'0 0.0
2018-May-21 00:00N 57°17' W 005°43'0 0.0
2018-May-20 23:29N 57°17' W 005°43'0 0.0
2018-May-20 22:59N 57°17' W 005°43'0 0.0
2018-May-20 22:30N 57°17' W 005°43'0 0.0
2018-May-20 22:00N 57°17' W 005°43'0 0.0
2018-May-20 21:27N 57°17' W 005°43'0 0.0
2018-May-20 20:58N 57°17' W 005°43'0 0.0
2018-May-20 20:29N 57°17' W 005°43'0 0.0
2018-May-20 19:58N 57°17' W 005°43'0 0.0
2018-May-20 19:19N 57°17' W 005°43'0 0.0
2018-May-20 19:00N 57°17' W 005°43'0 0.0
2018-May-20 18:28N 57°17' W 005°43'0 0.0
2018-May-20 17:59N 57°17' W 005°43'0 0.0
2018-May-20 17:28N 57°17' W 005°43'0 0.0
2018-May-20 17:00N 57°17' W 005°43'0 0.0
2018-May-20 16:28N 57°17' W 005°43'0 0.0
2018-May-20 15:58N 57°17' W 005°43'0 0.0
2018-May-20 15:29N 57°17' W 005°43'0 0.0
2018-May-20 14:59N 57°17' W 005°43'0 0.0
2018-May-20 14:29N 57°17' W 005°43'0 0.0
2018-May-20 14:00N 57°17' W 005°43'0 0.0
2018-May-20 13:28N 57°17' W 005°43'0 0.5
2018-May-20 12:59N 57°17' W 005°42'3 6.1
2018-May-20 12:30N 57°14' W 005°40'6 8.6
2018-May-20 11:51N 57°09' W 005°45'  
2018-May-18 06:23N 56°28' W 005°39'410.5
2018-May-18 06:01N 56°26' W 005°32'2 0.1
2018-May-17 10:41N 56°25' W 005°29'1 8.3
2018-May-17 10:30N 56°26' W 005°30'5 9.6
2018-May-17 10:01N 56°31' W 005°27'510.9
2018-May-17 09:30N 56°36' W 005°24'  

Dump ship's entire track history